sensor_id;sensor_type;location;lat;lon;timestamp;P1;durP1;ratioP1;P2;durP2;ratioP2
1174;SDS011;576;48.418;10.074;2023-05-10T00:02:18;1.63;;;1.53;;
1174;SDS011;576;48.418;10.074;2023-05-10T00:04:46;2.70;;;2.10;;
1174;SDS011;576;48.418;10.074;2023-05-10T00:07:14;1.60;;;1.50;;
1174;SDS011;576;48.418;10.074;2023-05-10T00:09:43;1.90;;;1.80;;
1174;SDS011;576;48.418;10.074;2023-05-10T00:12:13;1.83;;;1.70;;
1174;SDS011;576;48.418;10.074;2023-05-10T00:14:41;1.83;;;1.70;;
1174;SDS011;576;48.418;10.074;2023-05-10T00:17:09;1.60;;;1.50;;
1174;SDS011;576;48.418;10.074;2023-05-10T00:19:37;2.37;;;1.57;;
1174;SDS011;576;48.418;10.074;2023-05-10T00:22:06;1.70;;;1.60;;
1174;SDS011;576;48.418;10.074;2023-05-10T00:24:34;1.43;;;1.33;;
1174;SDS011;576;48.418;10.074;2023-05-10T00:27:02;1.60;;;1.50;;
1174;SDS011;576;48.418;10.074;2023-05-10T00:29:31;1.67;;;1.57;;
1174;SDS011;576;48.418;10.074;2023-05-10T00:32:00;1.57;;;1.47;;
1174;SDS011;576;48.418;10.074;2023-05-10T00:34:28;1.77;;;1.30;;
1174;SDS011;576;48.418;10.074;2023-05-10T00:36:56;1.77;;;1.63;;
1174;SDS011;576;48.418;10.074;2023-05-10T00:39:25;1.77;;;1.67;;
1174;SDS011;576;48.418;10.074;2023-05-10T00:41:54;2.03;;;1.73;;
1174;SDS011;576;48.418;10.074;2023-05-10T00:44:23;1.23;;;1.23;;
1174;SDS011;576;48.418;10.074;2023-05-10T00:46:52;1.40;;;1.40;;
1174;SDS011;576;48.418;10.074;2023-05-10T00:49:21;1.50;;;1.40;;
1174;SDS011;576;48.418;10.074;2023-05-10T00:51:49;1.73;;;1.30;;
1174;SDS011;576;48.418;10.074;2023-05-10T00:54:19;1.70;;;1.60;;
1174;SDS011;576;48.418;10.074;2023-05-10T00:56:47;1.27;;;1.20;;
1174;SDS011;576;48.418;10.074;2023-05-10T00:59:16;1.70;;;1.57;;
1174;SDS011;576;48.418;10.074;2023-05-10T01:01:45;1.60;;;1.50;;
1174;SDS011;576;48.418;10.074;2023-05-10T01:04:15;1.60;;;1.50;;
1174;SDS011;576;48.418;10.074;2023-05-10T01:06:43;1.60;;;1.50;;
1174;SDS011;576;48.418;10.074;2023-05-10T01:09:11;1.47;;;1.33;;
1174;SDS011;576;48.418;10.074;2023-05-10T01:11:40;1.70;;;1.60;;
1174;SDS011;576;48.418;10.074;2023-05-10T01:14:08;1.53;;;1.40;;
1174;SDS011;576;48.418;10.074;2023-05-10T01:16:38;1.20;;;1.20;;
1174;SDS011;576;48.418;10.074;2023-05-10T01:19:10;1.53;;;1.43;;
1174;SDS011;576;48.418;10.074;2023-05-10T01:21:46;1.40;;;1.30;;
1174;SDS011;576;48.418;10.074;2023-05-10T01:27:47;1.57;;;1.47;;
1174;SDS011;576;48.418;10.074;2023-05-10T01:30:44;1.63;;;1.53;;
1174;SDS011;576;48.418;10.074;2023-05-10T01:33:37;1.63;;;1.53;;
1174;SDS011;576;48.418;10.074;2023-05-10T01:36:13;1.60;;;1.50;;
1174;SDS011;576;48.418;10.074;2023-05-10T01:38:53;2.70;;;1.40;;
1174;SDS011;576;48.418;10.074;2023-05-10T01:41:28;1.30;;;1.20;;
1174;SDS011;576;48.418;10.074;2023-05-10T01:44:05;1.60;;;1.60;;
1174;SDS011;576;48.418;10.074;2023-05-10T01:46:45;1.37;;;1.27;;
1174;SDS011;576;48.418;10.074;2023-05-10T01:49:23;1.83;;;1.33;;
1174;SDS011;576;48.418;10.074;2023-05-10T01:51:53;1.43;;;1.07;;
1174;SDS011;576;48.418;10.074;2023-05-10T01:54:26;1.57;;;1.47;;
1174;SDS011;576;48.418;10.074;2023-05-10T01:56:58;1.33;;;1.23;;
1174;SDS011;576;48.418;10.074;2023-05-10T01:59:30;1.63;;;1.53;;
1174;SDS011;576;48.418;10.074;2023-05-10T02:02:05;1.43;;;1.33;;
1174;SDS011;576;48.418;10.074;2023-05-10T02:04:39;1.50;;;1.40;;
1174;SDS011;576;48.418;10.074;2023-05-10T02:07:09;1.30;;;1.20;;
1174;SDS011;576;48.418;10.074;2023-05-10T02:09:39;1.30;;;1.23;;
1174;SDS011;576;48.418;10.074;2023-05-10T02:12:10;1.67;;;1.57;;
1174;SDS011;576;48.418;10.074;2023-05-10T02:14:40;1.50;;;1.40;;
1174;SDS011;576;48.418;10.074;2023-05-10T02:17:09;1.00;;;1.00;;
1174;SDS011;576;48.418;10.074;2023-05-10T02:19:40;1.37;;;1.27;;
1174;SDS011;576;48.418;10.074;2023-05-10T02:22:11;1.37;;;1.27;;
1174;SDS011;576;48.418;10.074;2023-05-10T02:24:40;1.43;;;1.33;;
1174;SDS011;576;48.418;10.074;2023-05-10T02:27:08;1.30;;;1.30;;
1174;SDS011;576;48.418;10.074;2023-05-10T02:29:38;1.40;;;1.30;;
1174;SDS011;576;48.418;10.074;2023-05-10T02:32:06;1.27;;;1.10;;
1174;SDS011;576;48.418;10.074;2023-05-10T02:34:37;1.10;;;1.10;;
1174;SDS011;576;48.418;10.074;2023-05-10T02:37:08;1.40;;;1.30;;
1174;SDS011;576;48.418;10.074;2023-05-10T02:39:37;1.20;;;1.10;;
1174;SDS011;576;48.418;10.074;2023-05-10T02:42:10;1.37;;;1.27;;
1174;SDS011;576;48.418;10.074;2023-05-10T02:44:45;0.90;;;0.90;;
1174;SDS011;576;48.418;10.074;2023-05-10T02:47:14;1.40;;;1.30;;
1174;SDS011;576;48.418;10.074;2023-05-10T02:49:44;2.17;;;2.07;;
1174;SDS011;576;48.418;10.074;2023-05-10T02:52:14;1.30;;;1.20;;
1174;SDS011;576;48.418;10.074;2023-05-10T02:54:52;1.20;;;1.17;;
1174;SDS011;576;48.418;10.074;2023-05-10T02:57:25;1.10;;;1.00;;
1174;SDS011;576;48.418;10.074;2023-05-10T02:59:55;1.17;;;1.07;;
1174;SDS011;576;48.418;10.074;2023-05-10T03:02:23;1.20;;;1.20;;
1174;SDS011;576;48.418;10.074;2023-05-10T03:04:53;1.40;;;1.30;;
1174;SDS011;576;48.418;10.074;2023-05-10T03:07:21;1.60;;;1.50;;
1174;SDS011;576;48.418;10.074;2023-05-10T03:09:49;1.10;;;1.10;;
1174;SDS011;576;48.418;10.074;2023-05-10T03:12:20;0.80;;;0.80;;
1174;SDS011;576;48.418;10.074;2023-05-10T03:15:00;1.20;;;1.10;;
1174;SDS011;576;48.418;10.074;2023-05-10T03:17:40;0.97;;;0.97;;
1174;SDS011;576;48.418;10.074;2023-05-10T03:20:20;1.23;;;1.20;;
1174;SDS011;576;48.418;10.074;2023-05-10T03:22:53;1.07;;;1.07;;
1174;SDS011;576;48.418;10.074;2023-05-10T03:25:28;1.20;;;1.10;;
1174;SDS011;576;48.418;10.074;2023-05-10T03:27:59;0.77;;;0.77;;
1174;SDS011;576;48.418;10.074;2023-05-10T03:30:29;1.10;;;1.00;;
1174;SDS011;576;48.418;10.074;2023-05-10T03:33:03;0.90;;;0.90;;
1174;SDS011;576;48.418;10.074;2023-05-10T03:35:36;1.20;;;1.20;;
1174;SDS011;576;48.418;10.074;2023-05-10T03:38:05;1.30;;;1.20;;
1174;SDS011;576;48.418;10.074;2023-05-10T03:40:33;1.30;;;1.20;;
1174;SDS011;576;48.418;10.074;2023-05-10T03:43:01;1.20;;;1.20;;
1174;SDS011;576;48.418;10.074;2023-05-10T03:45:29;1.10;;;1.10;;
1174;SDS011;576;48.418;10.074;2023-05-10T03:47:58;1.17;;;1.10;;
1174;SDS011;576;48.418;10.074;2023-05-10T03:50:27;1.20;;;1.10;;
1174;SDS011;576;48.418;10.074;2023-05-10T03:52:56;1.10;;;1.00;;
1174;SDS011;576;48.418;10.074;2023-05-10T03:55:26;0.90;;;0.90;;
1174;SDS011;576;48.418;10.074;2023-05-10T03:57:56;1.27;;;1.20;;
1174;SDS011;576;48.418;10.074;2023-05-10T04:00:25;2.10;;;0.93;;
1174;SDS011;576;48.418;10.074;2023-05-10T04:02:54;1.27;;;1.17;;
1174;SDS011;576;48.418;10.074;2023-05-10T04:05:22;0.90;;;0.90;;
1174;SDS011;576;48.418;10.074;2023-05-10T04:07:52;1.10;;;1.00;;
1174;SDS011;576;48.418;10.074;2023-05-10T04:10:21;1.60;;;1.03;;
1174;SDS011;576;48.418;10.074;2023-05-10T04:12:49;1.30;;;1.20;;
1174;SDS011;576;48.418;10.074;2023-05-10T04:15:18;0.90;;;0.90;;
1174;SDS011;576;48.418;10.074;2023-05-10T04:17:46;0.90;;;0.90;;
1174;SDS011;576;48.418;10.074;2023-05-10T04:20:14;1.10;;;1.10;;
1174;SDS011;576;48.418;10.074;2023-05-10T04:22:43;2.83;;;1.00;;
1174;SDS011;576;48.418;10.074;2023-05-10T04:25:11;1.00;;;1.00;;
1174;SDS011;576;48.418;10.074;2023-05-10T04:27:41;0.90;;;0.90;;
1174;SDS011;576;48.418;10.074;2023-05-10T04:30:09;1.53;;;1.00;;
1174;SDS011;576;48.418;10.074;2023-05-10T04:32:38;1.10;;;1.10;;
1174;SDS011;576;48.418;10.074;2023-05-10T04:35:06;0.90;;;0.90;;
1174;SDS011;576;48.418;10.074;2023-05-10T04:37:36;1.13;;;1.13;;
1174;SDS011;576;48.418;10.074;2023-05-10T04:40:05;1.37;;;1.00;;
1174;SDS011;576;48.418;10.074;2023-05-10T04:42:34;0.80;;;0.80;;
1174;SDS011;576;48.418;10.074;2023-05-10T04:45:04;0.93;;;0.90;;
1174;SDS011;576;48.418;10.074;2023-05-10T04:47:33;1.10;;;1.00;;
1174;SDS011;576;48.418;10.074;2023-05-10T04:50:03;1.10;;;1.10;;
1174;SDS011;576;48.418;10.074;2023-05-10T04:52:34;1.27;;;1.00;;
1174;SDS011;576;48.418;10.074;2023-05-10T04:55:03;1.20;;;1.10;;
1174;SDS011;576;48.418;10.074;2023-05-10T04:57:34;1.50;;;1.20;;
1174;SDS011;576;48.418;10.074;2023-05-10T05:00:05;1.90;;;0.83;;
1174;SDS011;576;48.418;10.074;2023-05-10T05:02:35;0.90;;;0.90;;
1174;SDS011;576;48.418;10.074;2023-05-10T05:05:04;1.30;;;1.20;;
1174;SDS011;576;48.418;10.074;2023-05-10T05:07:33;1.67;;;1.23;;
1174;SDS011;576;48.418;10.074;2023-05-10T05:10:02;1.03;;;1.03;;
1174;SDS011;576;48.418;10.074;2023-05-10T05:12:31;1.27;;;1.10;;
1174;SDS011;576;48.418;10.074;2023-05-10T05:15:01;1.00;;;0.80;;
1174;SDS011;576;48.418;10.074;2023-05-10T05:17:35;2.27;;;1.10;;
1174;SDS011;576;48.418;10.074;2023-05-10T05:20:03;2.80;;;0.97;;
1174;SDS011;576;48.418;10.074;2023-05-10T05:22:32;2.10;;;1.10;;
1174;SDS011;576;48.418;10.074;2023-05-10T05:25:00;2.00;;;1.00;;
1174;SDS011;576;48.418;10.074;2023-05-10T05:27:29;1.07;;;1.00;;
1174;SDS011;576;48.418;10.074;2023-05-10T05:29:58;1.63;;;1.00;;
1174;SDS011;576;48.418;10.074;2023-05-10T05:32:27;1.00;;;1.00;;
1174;SDS011;576;48.418;10.074;2023-05-10T05:34:56;1.60;;;0.93;;
1174;SDS011;576;48.418;10.074;2023-05-10T05:37:24;1.20;;;1.10;;
1174;SDS011;576;48.418;10.074;2023-05-10T05:39:52;4.03;;;1.60;;
1174;SDS011;576;48.418;10.074;2023-05-10T05:42:21;1.97;;;1.10;;
1174;SDS011;576;48.418;10.074;2023-05-10T05:44:49;2.53;;;1.03;;
1174;SDS011;576;48.418;10.074;2023-05-10T05:47:17;1.27;;;1.17;;
1174;SDS011;576;48.418;10.074;2023-05-10T05:49:47;1.90;;;1.37;;
1174;SDS011;576;48.418;10.074;2023-05-10T05:52:15;1.23;;;0.90;;
1174;SDS011;576;48.418;10.074;2023-05-10T05:54:43;1.20;;;1.00;;
1174;SDS011;576;48.418;10.074;2023-05-10T05:57:12;1.53;;;1.00;;
1174;SDS011;576;48.418;10.074;2023-05-10T05:59:40;1.10;;;1.10;;
1174;SDS011;576;48.418;10.074;2023-05-10T06:02:10;2.67;;;1.10;;
1174;SDS011;576;48.418;10.074;2023-05-10T06:04:38;1.60;;;1.20;;
1174;SDS011;576;48.418;10.074;2023-05-10T06:07:11;1.43;;;1.27;;
1174;SDS011;576;48.418;10.074;2023-05-10T06:09:39;2.10;;;1.10;;
1174;SDS011;576;48.418;10.074;2023-05-10T06:12:07;1.40;;;1.17;;
1174;SDS011;576;48.418;10.074;2023-05-10T06:14:36;2.87;;;1.30;;
1174;SDS011;576;48.418;10.074;2023-05-10T06:17:04;1.10;;;1.00;;
1174;SDS011;576;48.418;10.074;2023-05-10T06:19:33;2.10;;;1.17;;
1174;SDS011;576;48.418;10.074;2023-05-10T06:22:01;4.00;;;1.20;;
1174;SDS011;576;48.418;10.074;2023-05-10T06:24:31;0.80;;;0.73;;
1174;SDS011;576;48.418;10.074;2023-05-10T06:26:59;1.10;;;1.00;;
1174;SDS011;576;48.418;10.074;2023-05-10T06:29:28;1.10;;;1.00;;
1174;SDS011;576;48.418;10.074;2023-05-10T06:31:56;3.03;;;1.43;;
1174;SDS011;576;48.418;10.074;2023-05-10T06:34:25;1.43;;;0.80;;
1174;SDS011;576;48.418;10.074;2023-05-10T06:36:53;1.90;;;0.80;;
1174;SDS011;576;48.418;10.074;2023-05-10T06:39:21;0.80;;;0.80;;
1174;SDS011;576;48.418;10.074;2023-05-10T06:41:51;2.30;;;1.10;;
1174;SDS011;576;48.418;10.074;2023-05-10T06:44:19;0.67;;;0.67;;
1174;SDS011;576;48.418;10.074;2023-05-10T06:46:47;0.60;;;0.60;;
1174;SDS011;576;48.418;10.074;2023-05-10T06:49:16;1.47;;;0.80;;
1174;SDS011;576;48.418;10.074;2023-05-10T06:51:44;1.60;;;0.83;;
1174;SDS011;576;48.418;10.074;2023-05-10T06:54:13;1.00;;;0.80;;
1174;SDS011;576;48.418;10.074;2023-05-10T06:56:41;2.90;;;0.93;;
1174;SDS011;576;48.418;10.074;2023-05-10T06:59:10;1.90;;;1.00;;
1174;SDS011;576;48.418;10.074;2023-05-10T07:01:39;1.30;;;0.77;;
1174;SDS011;576;48.418;10.074;2023-05-10T07:04:08;0.80;;;0.80;;
1174;SDS011;576;48.418;10.074;2023-05-10T07:06:36;1.07;;;0.83;;
1174;SDS011;576;48.418;10.074;2023-05-10T07:09:04;1.37;;;0.80;;
1174;SDS011;576;48.418;10.074;2023-05-10T07:11:33;0.83;;;0.80;;
1174;SDS011;576;48.418;10.074;2023-05-10T07:14:03;2.07;;;1.10;;
1174;SDS011;576;48.418;10.074;2023-05-10T07:16:33;3.50;;;1.80;;
1174;SDS011;576;48.418;10.074;2023-05-10T07:19:01;1.00;;;0.90;;
1174;SDS011;576;48.418;10.074;2023-05-10T07:21:31;0.97;;;0.97;;
1174;SDS011;576;48.418;10.074;2023-05-10T07:23:59;1.13;;;0.80;;
1174;SDS011;576;48.418;10.074;2023-05-10T07:26:29;2.00;;;1.60;;
1174;SDS011;576;48.418;10.074;2023-05-10T07:28:57;1.60;;;1.07;;
1174;SDS011;576;48.418;10.074;2023-05-10T07:31:26;1.33;;;1.00;;
1174;SDS011;576;48.418;10.074;2023-05-10T07:33:55;1.80;;;0.90;;
1174;SDS011;576;48.418;10.074;2023-05-10T07:36:23;0.93;;;0.83;;
1174;SDS011;576;48.418;10.074;2023-05-10T07:38:52;0.93;;;0.83;;
1174;SDS011;576;48.418;10.074;2023-05-10T07:41:20;1.90;;;0.90;;
1174;SDS011;576;48.418;10.074;2023-05-10T07:43:48;0.70;;;0.67;;
1174;SDS011;576;48.418;10.074;2023-05-10T07:46:16;1.03;;;0.90;;
1174;SDS011;576;48.418;10.074;2023-05-10T07:48:45;1.00;;;0.90;;
1174;SDS011;576;48.418;10.074;2023-05-10T07:51:15;0.90;;;0.90;;
1174;SDS011;576;48.418;10.074;2023-05-10T07:53:43;1.53;;;0.90;;
1174;SDS011;576;48.418;10.074;2023-05-10T07:56:21;1.60;;;0.80;;
1174;SDS011;576;48.418;10.074;2023-05-10T07:58:51;0.70;;;0.70;;
1174;SDS011;576;48.418;10.074;2023-05-10T08:01:19;0.80;;;0.70;;
1174;SDS011;576;48.418;10.074;2023-05-10T08:03:48;0.90;;;0.70;;
1174;SDS011;576;48.418;10.074;2023-05-10T08:06:19;1.07;;;1.00;;
1174;SDS011;576;48.418;10.074;2023-05-10T08:08:48;0.90;;;0.77;;
1174;SDS011;576;48.418;10.074;2023-05-10T08:11:16;1.57;;;1.10;;
1174;SDS011;576;48.418;10.074;2023-05-10T08:13:45;1.10;;;1.00;;
1174;SDS011;576;48.418;10.074;2023-05-10T08:16:13;1.10;;;0.80;;
1174;SDS011;576;48.418;10.074;2023-05-10T08:18:42;1.17;;;0.80;;
1174;SDS011;576;48.418;10.074;2023-05-10T08:21:11;0.90;;;0.90;;
1174;SDS011;576;48.418;10.074;2023-05-10T08:23:41;0.60;;;0.60;;
1174;SDS011;576;48.418;10.074;2023-05-10T08:26:10;2.30;;;0.70;;
1174;SDS011;576;48.418;10.074;2023-05-10T08:28:39;1.00;;;0.90;;
1174;SDS011;576;48.418;10.074;2023-05-10T08:31:07;1.60;;;0.70;;
1174;SDS011;576;48.418;10.074;2023-05-10T08:33:35;0.90;;;0.73;;
1174;SDS011;576;48.418;10.074;2023-05-10T08:36:03;1.10;;;0.97;;
1174;SDS011;576;48.418;10.074;2023-05-10T08:38:32;1.83;;;0.87;;
1174;SDS011;576;48.418;10.074;2023-05-10T08:41:01;1.03;;;0.93;;
1174;SDS011;576;48.418;10.074;2023-05-10T08:43:30;1.40;;;0.70;;
1174;SDS011;576;48.418;10.074;2023-05-10T08:46:00;0.63;;;0.57;;
1174;SDS011;576;48.418;10.074;2023-05-10T08:48:29;0.90;;;0.90;;
1174;SDS011;576;48.418;10.074;2023-05-10T08:50:58;0.70;;;0.70;;
1174;SDS011;576;48.418;10.074;2023-05-10T08:53:28;0.93;;;0.70;;
1174;SDS011;576;48.418;10.074;2023-05-10T08:55:58;1.30;;;0.70;;
1174;SDS011;576;48.418;10.074;2023-05-10T08:58:28;1.30;;;0.80;;
1174;SDS011;576;48.418;10.074;2023-05-10T09:00:56;0.70;;;0.70;;
1174;SDS011;576;48.418;10.074;2023-05-10T09:03:25;1.90;;;0.77;;
1174;SDS011;576;48.418;10.074;2023-05-10T09:05:53;0.73;;;0.70;;
1174;SDS011;576;48.418;10.074;2023-05-10T09:08:22;1.07;;;0.97;;
1174;SDS011;576;48.418;10.074;2023-05-10T09:10:53;0.60;;;0.60;;
1174;SDS011;576;48.418;10.074;2023-05-10T09:13:22;0.87;;;0.70;;
1174;SDS011;576;48.418;10.074;2023-05-10T09:15:52;1.53;;;0.80;;
1174;SDS011;576;48.418;10.074;2023-05-10T09:18:21;1.73;;;1.00;;
1174;SDS011;576;48.418;10.074;2023-05-10T09:20:51;0.60;;;0.60;;
1174;SDS011;576;48.418;10.074;2023-05-10T09:23:19;0.90;;;0.80;;
1174;SDS011;576;48.418;10.074;2023-05-10T09:25:47;0.70;;;0.60;;
1174;SDS011;576;48.418;10.074;2023-05-10T09:28:31;3.33;;;0.77;;
1174;SDS011;576;48.418;10.074;2023-05-10T09:31:01;1.07;;;1.07;;
1174;SDS011;576;48.418;10.074;2023-05-10T09:33:29;1.30;;;0.60;;
1174;SDS011;576;48.418;10.074;2023-05-10T09:36:11;1.67;;;1.57;;
1174;SDS011;576;48.418;10.074;2023-05-10T09:38:46;1.47;;;1.10;;
1174;SDS011;576;48.418;10.074;2023-05-10T09:41:16;1.47;;;1.00;;
1174;SDS011;576;48.418;10.074;2023-05-10T09:43:44;2.40;;;0.60;;
1174;SDS011;576;48.418;10.074;2023-05-10T09:46:14;0.70;;;0.70;;
1174;SDS011;576;48.418;10.074;2023-05-10T09:48:43;0.73;;;0.73;;
1174;SDS011;576;48.418;10.074;2023-05-10T09:51:18;0.60;;;0.60;;
1174;SDS011;576;48.418;10.074;2023-05-10T09:53:48;0.70;;;0.70;;
1174;SDS011;576;48.418;10.074;2023-05-10T09:56:36;1.13;;;1.00;;
1174;SDS011;576;48.418;10.074;2023-05-10T09:59:06;0.80;;;0.80;;
1174;SDS011;576;48.418;10.074;2023-05-10T10:01:38;1.20;;;0.93;;
1174;SDS011;576;48.418;10.074;2023-05-10T10:04:08;0.90;;;0.90;;
1174;SDS011;576;48.418;10.074;2023-05-10T10:06:37;0.80;;;0.70;;
1174;SDS011;576;48.418;10.074;2023-05-10T10:09:06;0.80;;;0.80;;
1174;SDS011;576;48.418;10.074;2023-05-10T10:11:34;0.70;;;0.60;;
1174;SDS011;576;48.418;10.074;2023-05-10T10:14:04;1.50;;;0.93;;
1174;SDS011;576;48.418;10.074;2023-05-10T10:16:32;1.83;;;0.90;;
1174;SDS011;576;48.418;10.074;2023-05-10T10:19:02;1.03;;;0.70;;
1174;SDS011;576;48.418;10.074;2023-05-10T10:21:30;0.87;;;0.70;;
1174;SDS011;576;48.418;10.074;2023-05-10T10:24:00;0.80;;;0.80;;
1174;SDS011;576;48.418;10.074;2023-05-10T10:26:32;0.80;;;0.70;;
1174;SDS011;576;48.418;10.074;2023-05-10T10:29:06;0.77;;;0.50;;
1174;SDS011;576;48.418;10.074;2023-05-10T10:31:45;0.70;;;0.70;;
1174;SDS011;576;48.418;10.074;2023-05-10T10:34:25;0.50;;;0.50;;
1174;SDS011;576;48.418;10.074;2023-05-10T10:36:54;2.47;;;0.70;;
1174;SDS011;576;48.418;10.074;2023-05-10T10:39:23;0.73;;;0.70;;
1174;SDS011;576;48.418;10.074;2023-05-10T10:41:53;0.60;;;0.60;;
1174;SDS011;576;48.418;10.074;2023-05-10T10:44:25;3.17;;;0.60;;
1174;SDS011;576;48.418;10.074;2023-05-10T10:47:01;0.80;;;0.80;;
1174;SDS011;576;48.418;10.074;2023-05-10T10:49:42;0.93;;;0.60;;
1174;SDS011;576;48.418;10.074;2023-05-10T10:55:02;1.07;;;0.70;;
1174;SDS011;576;48.418;10.074;2023-05-10T10:57:32;0.57;;;0.57;;
1174;SDS011;576;48.418;10.074;2023-05-10T11:00:23;1.00;;;0.57;;
1174;SDS011;576;48.418;10.074;2023-05-10T11:02:53;0.57;;;0.57;;
1174;SDS011;576;48.418;10.074;2023-05-10T11:05:28;0.67;;;0.60;;
1174;SDS011;576;48.418;10.074;2023-05-10T11:08:10;1.00;;;0.90;;
1174;SDS011;576;48.418;10.074;2023-05-10T11:10:40;1.10;;;0.80;;
1174;SDS011;576;48.418;10.074;2023-05-10T11:13:26;0.60;;;0.60;;
1174;SDS011;576;48.418;10.074;2023-05-10T11:15:56;1.80;;;1.40;;
1174;SDS011;576;48.418;10.074;2023-05-10T11:18:26;0.57;;;0.57;;
1174;SDS011;576;48.418;10.074;2023-05-10T11:20:57;1.47;;;0.80;;
1174;SDS011;576;48.418;10.074;2023-05-10T11:23:30;1.67;;;0.80;;
1174;SDS011;576;48.418;10.074;2023-05-10T11:25:58;3.33;;;0.97;;
1174;SDS011;576;48.418;10.074;2023-05-10T11:28:27;2.23;;;0.90;;
1174;SDS011;576;48.418;10.074;2023-05-10T11:30:56;1.00;;;0.90;;
1174;SDS011;576;48.418;10.074;2023-05-10T11:33:25;0.97;;;0.97;;
1174;SDS011;576;48.418;10.074;2023-05-10T11:35:56;2.27;;;0.60;;
1174;SDS011;576;48.418;10.074;2023-05-10T11:38:25;1.33;;;0.87;;
1174;SDS011;576;48.418;10.074;2023-05-10T11:40:53;1.37;;;0.80;;
1174;SDS011;576;48.418;10.074;2023-05-10T11:43:23;0.60;;;0.60;;
1174;SDS011;576;48.418;10.074;2023-05-10T11:45:54;1.93;;;0.80;;
1174;SDS011;576;48.418;10.074;2023-05-10T11:48:22;1.00;;;0.70;;
1174;SDS011;576;48.418;10.074;2023-05-10T11:50:50;1.20;;;1.10;;
1174;SDS011;576;48.418;10.074;2023-05-10T11:53:24;1.20;;;1.10;;
1174;SDS011;576;48.418;10.074;2023-05-10T11:55:54;1.50;;;0.83;;
1174;SDS011;576;48.418;10.074;2023-05-10T11:58:24;0.97;;;0.73;;
1174;SDS011;576;48.418;10.074;2023-05-10T12:00:52;4.60;;;1.30;;
1174;SDS011;576;48.418;10.074;2023-05-10T12:03:20;0.93;;;0.90;;
1174;SDS011;576;48.418;10.074;2023-05-10T12:05:49;1.70;;;0.80;;
1174;SDS011;576;48.418;10.074;2023-05-10T12:08:19;1.80;;;0.80;;
1174;SDS011;576;48.418;10.074;2023-05-10T12:10:50;3.17;;;0.60;;
1174;SDS011;576;48.418;10.074;2023-05-10T12:13:19;0.97;;;0.80;;
1174;SDS011;576;48.418;10.074;2023-05-10T12:15:47;0.93;;;0.77;;
1174;SDS011;576;48.418;10.074;2023-05-10T12:18:22;1.53;;;0.87;;
1174;SDS011;576;48.418;10.074;2023-05-10T12:20:51;2.83;;;1.00;;
1174;SDS011;576;48.418;10.074;2023-05-10T12:23:20;0.87;;;0.87;;
1174;SDS011;576;48.418;10.074;2023-05-10T12:25:50;1.03;;;0.87;;
1174;SDS011;576;48.418;10.074;2023-05-10T12:28:20;0.90;;;0.70;;
1174;SDS011;576;48.418;10.074;2023-05-10T12:30:48;1.47;;;0.90;;
1174;SDS011;576;48.418;10.074;2023-05-10T12:33:20;0.63;;;0.60;;
1174;SDS011;576;48.418;10.074;2023-05-10T12:35:49;1.37;;;0.80;;
1174;SDS011;576;48.418;10.074;2023-05-10T12:38:25;0.70;;;0.70;;
1174;SDS011;576;48.418;10.074;2023-05-10T12:40:57;0.83;;;0.50;;
1174;SDS011;576;48.418;10.074;2023-05-10T12:43:26;0.93;;;0.67;;
1174;SDS011;576;48.418;10.074;2023-05-10T12:45:55;1.77;;;0.90;;
1174;SDS011;576;48.418;10.074;2023-05-10T12:48:23;0.63;;;0.63;;
1174;SDS011;576;48.418;10.074;2023-05-10T12:50:52;1.43;;;0.77;;
1174;SDS011;576;48.418;10.074;2023-05-10T12:53:20;2.50;;;0.70;;
1174;SDS011;576;48.418;10.074;2023-05-10T12:55:48;0.50;;;0.50;;
1174;SDS011;576;48.418;10.074;2023-05-10T12:58:18;0.47;;;0.43;;
1174;SDS011;576;48.418;10.074;2023-05-10T13:00:53;0.70;;;0.70;;
1174;SDS011;576;48.418;10.074;2023-05-10T13:03:22;0.80;;;0.80;;
1174;SDS011;576;48.418;10.074;2023-05-10T13:05:50;1.63;;;0.73;;
1174;SDS011;576;48.418;10.074;2023-05-10T13:08:19;0.50;;;0.50;;
1174;SDS011;576;48.418;10.074;2023-05-10T13:10:47;0.93;;;0.73;;
1174;SDS011;576;48.418;10.074;2023-05-10T13:13:15;1.30;;;0.77;;
1174;SDS011;576;48.418;10.074;2023-05-10T13:15:45;3.80;;;0.80;;
1174;SDS011;576;48.418;10.074;2023-05-10T13:18:13;1.13;;;0.90;;
1174;SDS011;576;48.418;10.074;2023-05-10T13:20:42;1.03;;;0.60;;
1174;SDS011;576;48.418;10.074;2023-05-10T13:23:10;1.23;;;0.80;;
1174;SDS011;576;48.418;10.074;2023-05-10T13:25:38;0.93;;;0.70;;
1174;SDS011;576;48.418;10.074;2023-05-10T13:28:07;0.60;;;0.60;;
1174;SDS011;576;48.418;10.074;2023-05-10T13:30:36;0.73;;;0.70;;
1174;SDS011;576;48.418;10.074;2023-05-10T13:33:04;1.40;;;0.70;;
1174;SDS011;576;48.418;10.074;2023-05-10T13:35:32;1.70;;;0.77;;
1174;SDS011;576;48.418;10.074;2023-05-10T13:38:01;1.80;;;0.60;;
1174;SDS011;576;48.418;10.074;2023-05-10T13:40:29;0.67;;;0.67;;
1174;SDS011;576;48.418;10.074;2023-05-10T13:42:57;1.13;;;0.63;;
1174;SDS011;576;48.418;10.074;2023-05-10T13:45:25;1.20;;;1.10;;
1174;SDS011;576;48.418;10.074;2023-05-10T13:47:55;0.97;;;0.63;;
1174;SDS011;576;48.418;10.074;2023-05-10T13:50:23;0.93;;;0.80;;
1174;SDS011;576;48.418;10.074;2023-05-10T13:52:52;2.03;;;0.67;;
1174;SDS011;576;48.418;10.074;2023-05-10T13:55:20;0.93;;;0.73;;
1174;SDS011;576;48.418;10.074;2023-05-10T13:57:48;0.77;;;0.77;;
1174;SDS011;576;48.418;10.074;2023-05-10T14:00:16;1.47;;;1.03;;
1174;SDS011;576;48.418;10.074;2023-05-10T14:02:45;2.37;;;0.87;;
1174;SDS011;576;48.418;10.074;2023-05-10T14:05:15;0.83;;;0.73;;
1174;SDS011;576;48.418;10.074;2023-05-10T14:07:47;1.43;;;0.90;;
1174;SDS011;576;48.418;10.074;2023-05-10T14:10:16;3.40;;;0.50;;
1174;SDS011;576;48.418;10.074;2023-05-10T14:12:44;0.77;;;0.63;;
1174;SDS011;576;48.418;10.074;2023-05-10T14:15:12;0.50;;;0.50;;
1174;SDS011;576;48.418;10.074;2023-05-10T14:17:41;0.60;;;0.60;;
1174;SDS011;576;48.418;10.074;2023-05-10T14:20:10;0.60;;;0.60;;
1174;SDS011;576;48.418;10.074;2023-05-10T14:22:40;2.43;;;0.90;;
1174;SDS011;576;48.418;10.074;2023-05-10T14:25:08;2.20;;;0.70;;
1174;SDS011;576;48.418;10.074;2023-05-10T14:27:36;0.80;;;0.77;;
1174;SDS011;576;48.418;10.074;2023-05-10T14:30:05;0.63;;;0.50;;
1174;SDS011;576;48.418;10.074;2023-05-10T14:32:34;0.70;;;0.60;;
1174;SDS011;576;48.418;10.074;2023-05-10T14:35:03;0.90;;;0.60;;
1174;SDS011;576;48.418;10.074;2023-05-10T14:37:32;0.87;;;0.70;;
1174;SDS011;576;48.418;10.074;2023-05-10T14:40:02;0.77;;;0.67;;
1174;SDS011;576;48.418;10.074;2023-05-10T14:42:31;1.37;;;0.63;;
1174;SDS011;576;48.418;10.074;2023-05-10T14:44:59;0.87;;;0.53;;
1174;SDS011;576;48.418;10.074;2023-05-10T14:47:27;2.20;;;0.60;;
1174;SDS011;576;48.418;10.074;2023-05-10T14:49:55;0.50;;;0.50;;
1174;SDS011;576;48.418;10.074;2023-05-10T14:52:24;0.77;;;0.60;;
1174;SDS011;576;48.418;10.074;2023-05-10T14:54:53;2.40;;;0.60;;
1174;SDS011;576;48.418;10.074;2023-05-10T14:57:22;1.33;;;0.60;;
1174;SDS011;576;48.418;10.074;2023-05-10T14:59:50;0.90;;;0.90;;
1174;SDS011;576;48.418;10.074;2023-05-10T15:02:19;0.93;;;0.67;;
1174;SDS011;576;48.418;10.074;2023-05-10T15:04:48;1.83;;;0.80;;
1174;SDS011;576;48.418;10.074;2023-05-10T15:07:18;0.60;;;0.60;;
1174;SDS011;576;48.418;10.074;2023-05-10T15:09:46;0.83;;;0.63;;
1174;SDS011;576;48.418;10.074;2023-05-10T15:12:16;2.80;;;0.83;;
1174;SDS011;576;48.418;10.074;2023-05-10T15:14:45;0.90;;;0.90;;
1174;SDS011;576;48.418;10.074;2023-05-10T15:17:14;1.30;;;0.87;;
1174;SDS011;576;48.418;10.074;2023-05-10T15:19:44;1.23;;;0.73;;
1174;SDS011;576;48.418;10.074;2023-05-10T15:22:13;1.43;;;0.80;;
1174;SDS011;576;48.418;10.074;2023-05-10T15:24:41;1.27;;;0.73;;
1174;SDS011;576;48.418;10.074;2023-05-10T15:27:09;4.47;;;1.00;;
1174;SDS011;576;48.418;10.074;2023-05-10T15:29:38;4.00;;;1.20;;
1174;SDS011;576;48.418;10.074;2023-05-10T15:32:08;2.50;;;1.10;;
1174;SDS011;576;48.418;10.074;2023-05-10T15:34:37;4.43;;;1.07;;
1174;SDS011;576;48.418;10.074;2023-05-10T15:37:05;11.03;;;4.07;;
1174;SDS011;576;48.418;10.074;2023-05-10T15:39:33;14.57;;;4.23;;